Time;durP1;ratioP1;P1;durP2;ratioP2;P2;SDS_P1;SDS_P2;PMS_P1;PMS_P2;Temp;Humidity;BMP_temperature;BMP_pressure;BME280_temperature;BME280_humidity;BME280_pressure;Samples;Min_cycle;Max_cycle;Signal;HPM_P1;HPM_P2
2023/09/21 00:00:17;;;;;;;12.87;6.33;;;;;;;18.51;98.35;94838.72;5155029;27;20648;-45
2023/09/21 00:02:50;;;;;;;14.77;6.03;;;;;;;18.51;98.44;94838.72;5160161;27;20191;-45
2023/09/21 00:05:21;;;;;;;10.47;5.87;;;;;;;18.47;97.98;94837.47;5151715;27;20615;-45
2023/09/21 00:07:49;;;;;;;16.13;6.67;;;;;;;18.52;98.27;94845.50;5151433;27;20531;-45
2023/09/21 00:10:16;;;;;;;14.37;7.17;;;;;;;18.08;98.29;94776.50;5152861;27;20259;-44
2023/09/21 00:12:43;;;;;;;11.00;6.47;;;;;;;18.53;98.71;94849.72;5168742;27;20635;-45
2023/09/21 00:15:12;;;;;;;10.63;5.53;;;;;;;18.53;98.50;94845.34;5169326;27;20175;-45
2023/09/21 00:17:39;;;;;;;15.40;6.37;;;;;;;18.58;98.50;94852.56;5172147;27;20179;-44
2023/09/21 00:20:12;;;;;;;10.30;6.53;;;;;;;18.60;98.88;94855.75;5172202;27;20179;-44
2023/09/21 00:22:42;;;;;;;10.80;6.00;;;;;;;18.64;98.63;94858.78;5168597;27;20575;-45
2023/09/21 00:25:09;;;;;;;14.43;6.80;;;;;;;18.69;98.71;94861.63;5150745;27;20207;-45
2023/09/21 00:27:36;;;;;;;13.63;6.37;;;;;;;18.71;98.67;94862.28;5151239;27;20617;-45
2023/09/21 00:30:05;;;;;;;12.77;6.57;;;;;;;18.73;98.51;94861.09;5151094;27;20625;-44
2023/09/21 00:32:32;;;;;;;9.13;6.80;;;;;;;18.77;98.28;94877.09;5161878;27;20183;-44
2023/09/21 00:34:59;;;;;;;8.47;5.87;;;;;;;18.77;97.92;94877.88;5168321;27;20262;-44
2023/09/21 00:37:27;;;;;;;11.50;7.33;;;;;;;18.79;98.04;94877.72;5155744;27;20202;-44
2023/09/21 00:39:56;;;;;;;14.77;6.93;;;;;;;18.82;97.63;94879.13;5151341;27;20188;-45
2023/09/21 00:42:22;;;;;;;9.53;6.27;;;;;;;18.77;97.67;94883.06;5150758;27;20202;-44
2023/09/21 00:44:51;;;;;;;15.13;6.77;;;;;;;18.78;97.90;94883.88;5150743;27;20223;-45
2023/09/21 00:47:18;;;;;;;9.70;6.93;;;;;;;18.78;98.06;94889.88;5151785;27;20627;-45
2023/09/21 00:49:45;;;;;;;12.73;7.37;;;;;;;18.82;98.44;94882.53;5171366;27;20182;-44
2023/09/21 00:52:13;;;;;;;12.93;8.00;;;;;;;18.83;99.32;94884.16;5154757;27;20544;-44
2023/09/21 00:54:41;;;;;;;14.10;8.53;;;;;;;18.82;100.00;94879.13;5151082;27;20275;-45
2023/09/21 00:57:12;;;;;;;11.17;8.90;;;;;;;18.80;100.00;94872.34;5151773;27;20275;-45
2023/09/21 00:59:45;;;;;;;17.77;9.07;;;;;;;18.84;100.00;94866.81;5164490;27;20194;-46
2023/09/21 01:02:12;;;;;;;13.97;8.70;;;;;;;18.84;100.00;94866.81;5171652;27;20193;-44
2023/09/21 01:04:39;;;;;;;17.20;9.67;;;;;;;18.86;100.00;94849.28;5171634;27;20257;-45
2023/09/21 01:07:17;;;;;;;14.43;8.98;;;;;;;18.87;100.00;94846.53;5171251;27;20195;-44
2023/09/21 01:09:45;;;;;;;18.00;10.00;;;;;;;18.89;100.00;94852.31;5162502;27;20184;-44
2023/09/21 01:12:14;;;;;;;18.40;9.97;;;;;;;18.91;100.00;94850.34;5150639;27;20701;-45
2023/09/21 01:14:41;;;;;;;22.23;10.20;;;;;;;18.94;100.00;94849.16;5150772;27;20248;-44
2023/09/21 01:17:08;;;;;;;15.50;9.63;;;;;;;18.94;100.00;94846.56;5150941;27;20202;-44
2023/09/21 01:19:35;;;;;;;11.20;10.00;;;;;;;18.92;100.00;94840.78;5152161;27;20259;-44
2023/09/21 01:22:08;;;;;;;17.10;9.73;;;;;;;18.88;100.00;94831.78;5150978;27;20208;-44
2023/09/21 01:24:38;;;;;;;14.90;9.93;;;;;;;18.82;100.00;94824.72;5150620;27;20550;-45
2023/09/21 01:27:04;;;;;;;16.13;10.40;;;;;;;18.84;100.00;94839.09;5150499;27;20310;-45
2023/09/21 01:29:32;;;;;;;21.53;10.73;;;;;;;18.89;100.00;94835.97;5151265;27;20221;-44
2023/09/21 01:31:58;;;;;;;18.37;10.63;;;;;;;18.91;100.00;94828.78;5164231;27;20577;-43
2023/09/21 01:34:25;;;;;;;21.77;11.83;;;;;;;18.94;100.00;94836.19;5171788;27;20700;-44
2023/09/21 01:36:55;;;;;;;13.37;10.80;;;;;;;18.94;100.00;94831.81;5175584;27;20187;-45
2023/09/21 01:39:22;;;;;;;14.33;10.60;;;;;;;18.94;100.00;94823.25;5174920;27;20263;-43
2023/09/21 01:41:53;;;;;;;24.07;10.47;;;;;;;18.84;100.00;94810.59;5168289;27;20187;-45
2023/09/21 01:44:21;;;;;;;14.27;10.80;;;;;;;18.96;100.00;94810.91;5153970;27;20226;-44
2023/09/21 01:46:48;;;;;;;19.47;11.33;;;;;;;18.96;100.00;94818.69;5154233;27;20668;-43
2023/09/21 01:49:15;;;;;;;18.27;11.10;;;;;;;18.96;100.00;94809.13;5154084;27;20192;-45
2023/09/21 01:51:42;;;;;;;20.90;10.68;;;;;;;18.98;100.00;94809.72;5155172;27;20179;-46
2023/09/21 01:54:09;;;;;;;14.43;10.53;;;;;;;18.96;100.00;94800.53;5173092;27;20192;-46
2023/09/21 01:56:36;;;;;;;17.93;11.73;;;;;;;19.00;100.00;94806.97;5174963;27;20183;-45
2023/09/21 01:59:05;;;;;;;14.57;10.67;;;;;;;18.97;100.00;94805.53;5174722;27;20255;-45
2023/09/21 02:01:33;;;;;;;22.97;11.63;;;;;;;18.94;100.00;94792.94;5173450;27;20183;-45
2023/09/21 02:04:00;;;;;;;16.07;10.20;;;;;;;18.67;100.00;94747.84;5163826;27;20215;-45
2023/09/21 02:06:26;;;;;;;21.90;12.03;;;;;;;18.90;100.00;94786.53;5174341;27;20662;-45
2023/09/21 02:08:53;;;;;;;17.00;11.27;;;;;;;18.87;100.00;94778.31;5174270;27;20194;-43
2023/09/21 02:11:20;;;;;;;17.00;11.27;;;;;;;18.39;100.00;94695.19;5174162;27;20183;-46
2023/09/21 02:13:47;;;;;;;17.50;10.00;;;;;;;18.80;100.00;94763.53;5172342;27;20203;-44
2023/09/21 02:16:16;;;;;;;23.13;10.10;;;;;;;18.85;100.00;94768.16;5174006;27;20180;-44
2023/09/21 02:18:43;;;;;;;16.77;10.40;;;;;;;18.82;100.00;94763.31;5173866;27;20182;-45
2023/09/21 02:21:11;;;;;;;13.17;9.83;;;;;;;18.79;100.00;94758.53;5174673;27;20254;-46
2023/09/21 02:23:38;;;;;;;17.20;10.30;;;;;;;18.79;100.00;94751.56;5174338;27;20495;-44
2023/09/21 02:26:06;;;;;;;18.07;9.50;;;;;;;18.81;100.00;94769.50;5162725;27;20258;-46
2023/09/21 02:28:33;;;;;;;19.23;10.50;;;;;;;18.83;100.00;94775.31;5153239;27;20192;-44
2023/09/21 02:31:03;;;;;;;13.80;10.33;;;;;;;18.84;100.00;94778.72;5153307;27;20188;-44
2023/09/21 02:33:33;;;;;;;17.13;10.47;;;;;;;18.86;100.00;94777.50;5163480;27;20175;-45
2023/09/21 02:36:00;;;;;;;14.53;11.00;;;;;;;18.87;100.00;94776.56;5165800;27;20176;-45
2023/09/21 02:38:27;;;;;;;16.63;11.43;;;;;;;18.89;100.00;94784.13;5174229;27;20283;-45
2023/09/21 02:40:54;;;;;;;18.20;11.50;;;;;;;18.89;100.00;94779.75;5173942;27;20247;-45
2023/09/21 02:43:21;;;;;;;17.73;10.53;;;;;;;18.90;100.00;94781.34;5174436;27;20183;-43
2023/09/21 02:45:50;;;;;;;15.30;11.90;;;;;;;18.91;100.00;94789.91;5171680;27;20198;-45
2023/09/21 02:48:16;;;;;;;13.90;10.57;;;;;;;18.90;100.00;94776.16;5160383;27;20195;-44
2023/09/21 02:50:48;;;;;;;15.67;12.37;;;;;;;18.84;100.00;94768.34;5152966;27;20187;-43
2023/09/21 02:53:15;;;;;;;16.27;12.53;;;;;;;18.86;100.00;94781.91;5152731;27;20190;-46
2023/09/21 02:55:42;;;;;;;16.90;10.60;;;;;;;18.86;100.00;94781.91;5152806;27;20548;-44
2023/09/21 02:58:10;;;;;;;16.03;10.97;;;;;;;18.84;100.00;94782.09;5159059;27;20189;-45
2023/09/21 03:00:42;;;;;;;17.67;11.20;;;;;;;18.82;100.00;94776.28;5173757;27;20234;-44
2023/09/21 03:03:10;;;;;;;16.83;11.37;;;;;;;18.82;100.00;94783.25;5173451;27;20195;-44
2023/09/21 03:05:38;;;;;;;19.53;12.70;;;;;;;18.76;100.00;94788.19;5173597;27;20211;-45
2023/09/21 03:08:13;;;;;;;17.20;10.40;;;;;;;18.75;100.00;94788.41;5171251;27;20184;-45
2023/09/21 03:10:40;;;;;;;13.27;10.67;;;;;;;18.64;100.00;94775.91;5152734;27;20536;-44
2023/09/21 03:13:10;;;;;;;20.07;10.90;;;;;;;18.70;100.00;94793.34;5152363;27;20199;-45
2023/09/21 03:15:37;;;;;;;18.17;11.87;;;;;;;18.69;100.00;94795.09;5152703;27;20187;-45
2023/09/21 03:18:09;;;;;;;15.37;11.13;;;;;;;18.67;100.00;94799.66;5153511;27;20212;-44
2023/09/21 03:20:36;;;;;;;24.70;11.23;;;;;;;18.41;100.00;94770.91;5165838;27;20190;-44
2023/09/21 03:23:05;;;;;;;17.70;10.87;;;;;;;18.62;100.00;94811.56;5172907;27;20195;-45
2023/09/21 03:25:34;;;;;;;13.10;10.93;;;;;;;18.60;100.00;94806.53;5172823;27;20993;-44
2023/09/21 03:28:10;;;;;;;15.63;10.93;;;;;;;18.58;100.00;94805.94;5173062;27;20190;-44
2023/09/21 03:30:38;;;;;;;15.33;11.10;;;;;;;18.59;100.00;94801.56;5164111;27;20191;-44
2023/09/21 03:33:05;;;;;;;18.30;10.57;;;;;;;18.07;100.00;94712.78;5152054;27;20183;-43
2023/09/21 03:35:32;;;;;;;23.73;11.33;;;;;;;18.56;100.00;94798.34;5151956;27;20304;-46
2023/09/21 03:37:59;;;;;;;16.50;11.07;;;;;;;18.56;100.00;94797.53;5152655;27;20199;-46
2023/09/21 03:40:26;;;;;;;16.10;10.97;;;;;;;18.58;100.00;94794.78;5157013;27;20191;-46
2023/09/21 03:42:55;;;;;;;23.40;11.40;;;;;;;18.56;100.00;94789.75;5153997;27;20282;-43
2023/09/21 03:45:24;;;;;;;19.80;11.53;;;;;;;18.55;100.00;94793.34;5152617;27;20275;-44
2023/09/21 03:47:51;;;;;;;20.63;13.07;;;;;;;18.56;100.00;94787.16;5155062;27;20171;-44
2023/09/21 03:50:19;;;;;;;19.23;14.27;;;;;;;18.51;100.00;94784.34;5171620;27;20206;-45
2023/09/21 03:52:47;;;;;;;22.13;13.57;;;;;;;18.47;100.00;94785.69;5172623;27;20201;-46
2023/09/21 03:55:15;;;;;;;27.37;18.93;;;;;;;18.40;100.00;94784.84;5168572;27;20184;-46
2023/09/21 03:57:43;;;;;;;26.83;21.00;;;;;;;18.39;100.00;94783.22;5155805;27;20178;-46
2023/09/21 04:00:25;;;;;;;34.47;26.10;;;;;;;18.35;100.00;94780.22;5156790;27;20278;-46
2023/09/21 04:02:52;;;;;;;43.33;31.80;;;;;;;18.33;100.00;94791.72;5151507;27;20187;-44
2023/09/21 04:05:20;;;;;;;42.67;32.60;;;;;;;18.27;100.00;94791.47;5152484;27;20215;-43
2023/09/21 04:07:47;;;;;;;39.13;28.83;;;;;;;18.24;100.00;94788.44;5157089;27;20184;-44
2023/09/21 04:10:15;;;;;;;34.03;26.17;;;;;;;18.13;100.00;94769.00;5170250;27;20274;-44
2023/09/21 04:12:41;;;;;;;36.97;27.13;;;;;;;18.26;100.00;94795.06;5172021;27;20259;-46
2023/09/21 04:15:10;;;;;;;32.00;27.97;;;;;;;18.24;100.00;94797.00;5172096;27;20198;-44
2023/09/21 04:17:39;;;;;;;35.87;28.10;;;;;;;18.27;100.00;94798.44;5154973;27;20670;-44
2023/09/21 04:20:11;;;;;;;36.07;28.27;;;;;;;18.26;100.00;94802.81;5151187;27;20198;-45
2023/09/21 04:22:38;;;;;;;37.30;27.00;;;;;;;18.27;100.00;94801.03;5151172;27;20198;-45
2023/09/21 04:25:09;;;;;;;31.10;27.10;;;;;;;18.28;100.00;94802.63;5150757;27;20703;-45
2023/09/21 04:27:37;;;;;;;36.97;24.67;;;;;;;18.28;100.00;94805.22;5170434;27;20194;-45
2023/09/21 04:30:06;;;;;;;23.87;19.97;;;;;;;18.32;100.00;94809.06;5171632;27;20261;-45
2023/09/21 04:32:34;;;;;;;28.17;20.27;;;;;;;18.30;100.00;94800.66;5130139;27;20184;-45
2023/09/21 04:35:05;;;;;;;30.63;18.83;;;;;;;18.38;100.00;94792.78;5130147;27;20192;-46
2023/09/21 04:37:33;;;;;;;26.27;17.83;;;;;;;18.41;100.00;94787.25;5133179;27;20203;-43
2023/09/21 04:40:00;;;;;;;21.33;16.83;;;;;;;18.43;100.00;94792.22;5127591;27;20903;-46
2023/09/21 04:42:30;;;;;;;20.87;16.00;;;;;;;18.24;100.00;94758.19;5136867;27;20183;-45
2023/09/21 04:44:58;;;;;;;20.93;14.50;;;;;;;18.47;100.00;94789.06;5146377;27;20211;-45
2023/09/21 04:47:27;;;;;;;26.27;14.23;;;;;;;18.56;100.00;94789.75;5153686;27;20187;-44
2023/09/21 04:49:54;;;;;;;20.73;13.90;;;;;;;18.61;100.00;94792.63;5162469;27;20220;-43
2023/09/21 04:52:22;;;;;;;21.07;15.03;;;;;;;18.63;100.00;94789.84;5150851;27;20191;-44
2023/09/21 04:54:52;;;;;;;22.20;14.83;;;;;;;18.61;100.00;94800.41;5159306;27;20190;-45
2023/09/21 04:57:20;;;;;;;24.20;14.30;;;;;;;18.65;100.00;94800.81;5171407;27;20604;-45
2023/09/21 04:59:47;;;;;;;27.27;15.17;;;;;;;18.56;100.00;94780.19;5171561;27;20195;-44
2023/09/21 05:02:14;;;;;;;19.10;13.67;;;;;;;18.71;100.00;94797.53;5171720;27;20703;-44
2023/09/21 05:04:41;;;;;;;21.47;14.70;;;;;;;18.74;100.00;94800.56;5171848;27;20587;-45
2023/09/21 05:07:07;;;;;;;19.00;13.57;;;;;;;18.79;100.00;94802.59;5171616;27;20536;-44
2023/09/21 05:09:35;;;;;;;21.00;14.40;;;;;;;18.84;100.00;94804.63;5172685;27;20745;-44
2023/09/21 05:12:05;;;;;;;18.63;13.13;;;;;;;18.91;100.00;94808.88;5175424;27;20183;-45
2023/09/21 05:14:32;;;;;;;17.37;14.10;;;;;;;19.00;100.00;94809.56;5176177;27;20183;-44
2023/09/21 05:16:58;;;;;;;17.97;12.80;;;;;;;19.05;100.00;94812.38;5175851;27;20262;-44
2023/09/21 05:19:25;;;;;;;21.47;13.33;;;;;;;19.17;100.00;94817.84;5175940;27;20179;-43
2023/09/21 05:21:56;;;;;;;24.30;14.40;;;;;;;19.24;100.00;94803.94;5166791;27;20199;-43
2023/09/21 05:24:25;;;;;;;23.43;12.93;;;;;;;19.29;100.00;94806.78;5152615;27;20190;-45
2023/09/21 05:26:54;;;;;;;21.03;13.93;;;;;;;19.32;100.00;94805.59;5151613;27;20322;-44
2023/09/21 05:29:21;;;;;;;21.30;13.43;;;;;;;19.39;100.00;94803.88;5152215;27;20199;-43
2023/09/21 05:31:48;;;;;;;21.60;12.48;;;;;;;19.55;100.00;94805.34;5151155;27;20230;-44
2023/09/21 05:34:15;;;;;;;21.53;12.90;;;;;;;19.71;100.00;94799.09;5154732;27;20199;-44
2023/09/21 05:36:42;;;;;;;18.02;12.77;;;;;;;19.86;100.00;94798.97;5154177;27;20282;-45
2023/09/21 05:39:09;;;;;;;18.60;13.52;;;;;;;19.94;100.00;94794.41;5154407;27;20561;-44
2023/09/21 05:41:35;;;;;;;19.90;13.52;;;;;;;20.09;100.00;94799.47;5154239;27;20184;-46
2023/09/21 05:44:04;;;;;;;20.80;12.10;;;;;;;20.22;100.00;94806.53;5154219;27;20180;-46
2023/09/21 05:46:31;;;;;;;22.77;12.13;;;;;;;20.35;100.00;94803.97;5154383;27;20272;-46
2023/09/21 05:48:59;;;;;;;17.80;12.93;;;;;;;20.49;100.00;94807.44;5153948;27;20199;-45
2023/09/21 05:51:26;;;;;;;18.17;10.90;;;;;;;20.61;100.00;94800.69;5154469;27;20188;-46
2023/09/21 05:53:53;;;;;;;15.57;11.77;;;;;;;20.71;99.75;94801.09;5153886;27;20657;-45
2023/09/21 05:56:20;;;;;;;14.32;11.68;;;;;;;20.66;98.87;94780.09;5153966;27;20200;-45
2023/09/21 05:58:47;;;;;;;19.10;12.43;;;;;;;20.81;97.82;94805.88;5153985;27;20191;-46
2023/09/21 06:01:15;;;;;;;21.65;11.50;;;;;;;20.74;96.88;94807.69;5154000;27;20199;-46
2023/09/21 06:03:42;;;;;;;14.48;10.88;;;;;;;20.65;97.32;94808.88;5154162;27;20230;-46
2023/09/21 06:06:09;;;;;;;16.75;12.02;;;;;;;20.56;97.67;94815.25;5153813;27;20219;-44
2023/09/21 06:08:37;;;;;;;18.20;13.18;;;;;;;20.58;98.34;94824.44;5153639;27;20210;-46
2023/09/21 06:11:04;;;;;;;21.05;11.98;;;;;;;20.61;98.79;94821.47;5153648;27;20274;-44
2023/09/21 06:13:30;;;;;;;16.10;12.13;;;;;;;20.63;98.76;94826.44;5153815;27;20191;-46
2023/09/21 06:15:57;;;;;;;22.55;12.93;;;;;;;20.68;98.70;94824.88;5153611;27;20191;-45
2023/09/21 06:18:25;;;;;;;22.42;12.23;;;;;;;20.78;97.92;94821.91;5153841;27;20188;-45
2023/09/21 06:20:53;;;;;;;23.95;12.63;;;;;;;20.84;97.43;94828.09;5153705;27;20184;-45
2023/09/21 06:23:19;;;;;;;19.17;12.18;;;;;;;20.92;96.96;94820.13;5153678;27;20276;-44
2023/09/21 06:25:48;;;;;;;18.02;12.38;;;;;;;20.96;96.05;94814.31;5153066;27;20238;-45
2023/09/21 06:28:15;;;;;;;18.42;10.90;;;;;;;21.10;95.63;94822.13;5153616;27;20183;-45
2023/09/21 06:30:42;;;;;;;17.40;13.02;;;;;;;21.21;94.22;94811.13;5153269;27;20191;-45
2023/09/21 06:33:09;;;;;;;17.92;11.60;;;;;;;21.34;93.13;94808.56;5153746;27;20308;-45
2023/09/21 06:35:37;;;;;;;21.20;12.52;;;;;;;21.40;93.17;94799.94;5153260;27;20202;-45
2023/09/21 06:38:04;;;;;;;20.23;12.63;;;;;;;21.53;93.08;94806.94;5153041;27;20640;-44
2023/09/21 06:40:32;;;;;;;22.45;12.38;;;;;;;21.61;92.33;94814.53;5152934;27;20198;-44
2023/09/21 06:43:00;;;;;;;20.27;12.70;;;;;;;21.63;91.16;94809.94;5153366;27;20195;-45
2023/09/21 06:45:31;;;;;;;24.88;12.57;;;;;;;21.58;90.17;94820.13;5153077;27;20323;-45
2023/09/21 06:48:00;;;;;;;26.77;12.70;;;;;;;21.46;90.71;94809.56;5153199;27;20183;-45
2023/09/21 06:50:27;;;;;;;28.30;13.02;;;;;;;21.45;91.22;94815.75;5152886;27;20184;-44
2023/09/21 06:52:56;;;;;;;18.73;12.77;;;;;;;21.40;91.16;94802.53;5152859;27;20683;-46
2023/09/21 06:55:24;;;;;;;24.27;14.48;;;;;;;21.41;91.49;94800.72;5152904;27;20223;-45
2023/09/21 06:57:51;;;;;;;27.20;13.20;;;;;;;21.38;91.78;94803.75;5152901;27;20180;-45
2023/09/21 07:00:18;;;;;;;32.05;13.93;;;;;;;21.46;91.51;94806.13;5152729;27;20655;-45
2023/09/21 07:02:46;;;;;;;23.75;12.68;;;;;;;21.54;91.15;94806.75;5152839;27;20183;-46
2023/09/21 07:05:12;;;;;;;25.05;12.98;;;;;;;21.56;90.90;94803.13;5152680;27;20223;-45
2023/09/21 07:07:41;;;;;;;33.88;13.88;;;;;;;21.60;90.38;94799.91;5152673;27;20188;-45
2023/09/21 07:10:11;;;;;;;28.40;12.77;;;;;;;21.73;90.68;94809.50;5152847;27;20184;-45
2023/09/21 07:12:39;;;;;;;23.98;13.73;;;;;;;21.97;89.59;94814.03;5152588;27;20194;-46
2023/09/21 07:15:08;;;;;;;20.92;13.82;;;;;;;22.23;88.51;94815.78;5152796;27;20279;-45
2023/09/21 07:17:36;;;;;;;26.75;13.68;;;;;;;22.35;87.43;94823.75;5152304;27;20332;-45
2023/09/21 07:20:04;;;;;;;23.90;13.85;;;;;;;22.43;87.26;94823.50;5152775;27;20191;-46
2023/09/21 07:22:31;;;;;;;22.58;13.00;;;;;;;22.40;86.57;94815.31;5152416;27;20686;-44
2023/09/21 07:24:58;;;;;;;27.25;13.60;;;;;;;22.47;85.84;94821.31;5152803;27;20184;-47
2023/09/21 07:27:26;;;;;;;22.75;11.30;;;;;;;22.52;85.24;94826.69;5152098;27;20738;-46
2023/09/21 07:29:55;;;;;;;18.17;10.20;;;;;;;22.58;83.24;94825.03;5152497;27;20699;-46
2023/09/21 07:32:22;;;;;;;13.57;8.43;;;;;;;22.73;81.17;94830.78;5151537;27;20203;-47
2023/09/21 07:34:49;;;;;;;14.57;8.98;;;;;;;22.90;79.80;94824.09;5152125;27;20195;-45
2023/09/21 07:37:16;;;;;;;16.83;9.57;;;;;;;23.10;78.92;94836.19;5152038;27;20184;-46
2023/09/21 07:39:43;;;;;;;15.48;8.55;;;;;;;23.31;78.70;94832.41;5152350;27;20247;-46
2023/09/21 07:42:10;;;;;;;17.58;10.20;;;;;;;23.46;77.51;94836.31;5151727;27;20708;-45
2023/09/21 07:44:42;;;;;;;11.30;8.45;;;;;;;23.61;76.91;94827.34;5152110;27;20187;-45
2023/09/21 07:47:09;;;;;;;13.30;8.65;;;;;;;23.77;75.65;94835.47;5151673;27;20305;-45
2023/09/21 07:49:36;;;;;;;16.27;8.98;;;;;;;23.94;74.75;94835.69;5152193;27;20183;-46
2023/09/21 07:52:03;;;;;;;16.33;9.93;;;;;;;24.02;73.45;94832.78;5152014;27;20188;-46
2023/09/21 07:54:31;;;;;;;17.08;10.18;;;;;;;24.06;73.78;94832.38;5151357;27;20252;-45
2023/09/21 07:56:58;;;;;;;21.27;9.52;;;;;;;24.14;73.36;94832.09;5151790;27;20188;-47
2023/09/21 07:59:25;;;;;;;15.40;9.98;;;;;;;24.17;72.22;94827.19;5151667;27;20184;-46
2023/09/21 08:01:56;;;;;;;15.85;9.18;;;;;;;24.15;72.26;94828.44;5151728;27;20187;-45
2023/09/21 08:04:22;;;;;;;21.42;9.70;;;;;;;24.15;72.80;94825.84;5151332;27;20187;-45
2023/09/21 08:06:49;;;;;;;16.58;10.00;;;;;;;24.06;72.58;94822.72;5151759;27;20222;-46
2023/09/21 08:09:18;;;;;;;13.48;9.45;;;;;;;23.97;72.48;94814.38;5151574;27;20188;-45
2023/09/21 08:11:45;;;;;;;20.42;9.18;;;;;;;23.94;72.65;94817.41;5151687;27;20236;-45
2023/09/21 08:14:12;;;;;;;19.95;8.93;;;;;;;24.01;71.55;94815.53;5151305;27;20183;-47
2023/09/21 08:16:39;;;;;;;17.83;8.68;;;;;;;23.98;71.60;94818.56;5151636;27;20184;-46
2023/09/21 08:19:07;;;;;;;22.23;9.38;;;;;;;23.93;72.24;94822.84;5151316;27;20187;-46
2023/09/21 08:21:34;;;;;;;16.27;8.48;;;;;;;23.94;72.24;94819.22;5151466;27;20176;-46
2023/09/21 08:24:01;;;;;;;12.38;8.40;;;;;;;23.93;71.84;94821.03;5151205;27;20199;-47
2023/09/21 08:26:28;;;;;;;9.80;7.45;;;;;;;23.88;71.85;94820.91;5151151;27;20231;-44
2023/09/21 08:28:54;;;;;;;14.77;7.82;;;;;;;23.89;71.74;94829.53;5151367;27;20187;-45
2023/09/21 08:31:21;;;;;;;21.45;8.90;;;;;;;23.82;71.95;94831.41;5151418;27;20188;-45
2023/09/21 08:33:49;;;;;;;15.75;8.38;;;;;;;23.78;72.27;94837.03;5151569;27;20175;-46
2023/09/21 08:36:17;;;;;;;12.88;7.50;;;;;;;23.82;71.96;94837.41;5151144;27;20267;-46
2023/09/21 08:38:45;;;;;;;13.25;7.68;;;;;;;23.87;71.13;94834.16;5150906;27;20199;-46
2023/09/21 08:41:13;;;;;;;15.18;8.70;;;;;;;23.81;70.80;94832.41;5150823;27;20219;-44
2023/09/21 08:43:41;;;;;;;13.30;7.68;;;;;;;23.71;71.56;94832.94;5150504;27;20184;-46
2023/09/21 08:46:11;;;;;;;18.83;8.27;;;;;;;23.64;71.99;94832.94;5150351;27;20223;-46
2023/09/21 08:48:40;;;;;;;15.88;8.68;;;;;;;23.59;72.60;94824.16;5151068;27;20252;-46
2023/09/21 08:51:11;;;;;;;22.30;7.57;;;;;;;23.56;72.67;94824.59;5150580;27;20274;-45
2023/09/21 08:53:40;;;;;;;13.55;8.15;;;;;;;23.43;72.75;94810.63;5150835;27;20697;-45
2023/09/21 08:56:08;;;;;;;10.63;7.68;;;;;;;23.55;73.29;94826.41;5150793;27;20207;-47
2023/09/21 08:58:40;;;;;;;12.30;7.30;;;;;;;23.54;73.28;94827.44;5150945;27;20211;-45
2023/09/21 09:01:08;;;;;;;12.05;7.90;;;;;;;23.50;73.41;94829.66;5150600;27;20670;-45
2023/09/21 09:03:35;;;;;;;17.33;7.53;;;;;;;23.51;73.21;94828.63;5151033;27;20251;-47
2023/09/21 09:06:02;;;;;;;14.23;6.95;;;;;;;23.50;73.47;94829.66;5150451;27;20215;-45
2023/09/21 09:08:28;;;;;;;10.48;6.68;;;;;;;23.52;73.93;94825.00;5150802;27;20199;-45
2023/09/21 09:10:57;;;;;;;12.18;7.22;;;;;;;23.57;74.15;94820.94;5150434;27;20211;-45
2023/09/21 09:13:31;;;;;;;16.30;7.78;;;;;;;23.62;74.73;94824.53;5150741;27;20268;-44
2023/09/21 09:15:59;;;;;;;11.48;8.50;;;;;;;23.65;74.16;94825.94;5150303;27;20228;-45
2023/09/21 09:18:26;;;;;;;12.60;7.85;;;;;;;23.71;73.26;94823.28;5151068;27;20232;-45
2023/09/21 09:20:55;;;;;;;9.63;6.85;;;;;;;23.73;73.24;94821.22;5150671;27;20194;-46
2023/09/21 09:23:22;;;;;;;12.88;8.27;;;;;;;23.81;73.02;94820.16;5150677;27;20263;-45
2023/09/21 09:25:51;;;;;;;16.58;7.53;;;;;;;23.89;72.55;94826.91;5150399;27;20219;-46
2023/09/21 09:28:19;;;;;;;13.05;7.35;;;;;;;23.93;72.30;94822.84;5150418;27;20275;-46
2023/09/21 09:30:48;;;;;;;21.42;7.78;;;;;;;23.93;72.64;94817.63;5150426;27;20198;-45
2023/09/21 09:33:16;;;;;;;14.60;7.40;;;;;;;23.89;72.96;94811.25;5150408;27;20187;-45
2023/09/21 09:35:45;;;;;;;11.02;7.30;;;;;;;23.96;73.59;94822.41;5150377;27;20690;-46
2023/09/21 09:38:12;;;;;;;22.15;8.30;;;;;;;23.93;73.52;94802.75;5150228;27;20184;-46
2023/09/21 09:40:39;;;;;;;12.77;7.50;;;;;;;23.96;74.18;94807.56;5150656;27;20208;-46
2023/09/21 09:43:06;;;;;;;14.35;8.05;;;;;;;23.92;73.43;94813.41;5150114;27;20196;-45
2023/09/21 09:45:37;;;;;;;16.85;7.50;;;;;;;23.87;73.73;94818.47;5150388;27;20601;-45
2023/09/21 09:48:11;;;;;;;14.77;7.35;;;;;;;23.83;74.24;94809.47;5150099;27;20767;-45
2023/09/21 09:50:41;;;;;;;16.80;8.10;;;;;;;23.81;74.72;94806.31;5152285;27;20278;-45
2023/09/21 09:53:10;;;;;;;15.02;7.85;;;;;;;23.83;75.12;94815.50;5155107;27;20217;-47
2023/09/21 09:55:42;;;;;;;13.07;6.55;;;;;;;23.87;74.06;94803.59;5153654;27;20199;-45
2023/09/21 09:58:09;;;;;;;11.80;7.45;;;;;;;23.91;73.40;94810.00;5154165;27;20226;-45
2023/09/21 10:00:41;;;;;;;12.55;8.05;;;;;;;23.84;73.27;94782.38;5154119;27;20547;-45
2023/09/21 10:03:09;;;;;;;15.68;7.68;;;;;;;24.09;73.60;94811.81;5153798;27;20226;-46
2023/09/21 10:05:37;;;;;;;16.00;8.23;;;;;;;24.19;73.20;94804.25;5154128;27;20251;-45
2023/09/21 10:08:05;;;;;;;19.63;7.82;;;;;;;24.28;72.63;94800.34;5153839;27;20220;-45
2023/09/21 10:10:36;;;;;;;15.52;8.20;;;;;;;24.47;72.35;94802.94;5153714;27;20192;-44
2023/09/21 10:13:03;;;;;;;14.68;7.78;;;;;;;24.68;70.24;94801.66;5153607;27;20220;-46
2023/09/21 10:15:33;;;;;;;16.27;7.95;;;;;;;24.91;69.43;94804.31;5154113;27;20188;-46
2023/09/21 10:18:02;;;;;;;15.23;7.38;;;;;;;25.11;67.65;94811.13;5153779;27;20179;-46
2023/09/21 10:20:32;;;;;;;12.35;6.18;;;;;;;25.24;66.68;94798.63;5153652;27;20201;-45
2023/09/21 10:23:01;;;;;;;11.57;6.40;;;;;;;25.47;66.25;94794.41;5153327;27;20195;-47
2023/09/21 10:25:39;;;;;;;14.55;6.75;;;;;;;25.70;65.12;94797.06;5153604;27;20307;-45
2023/09/21 10:28:38;;;;;;;10.15;6.13;;;;;;;25.87;63.41;94786.69;5153413;27;20706;-46
2023/09/21 10:31:23;;;;;;;10.70;5.82;;;;;;;25.93;63.28;94787.59;5069384;28;20634;-46
2023/09/21 10:34:07;;;;;;;12.70;5.85;;;;;;;26.05;63.00;94785.75;5069639;28;20194;-45
2023/09/21 10:36:38;;;;;;;7.03;5.25;;;;;;;26.08;62.86;94779.22;5067847;28;20194;-46
2023/09/21 10:39:31;;;;;;;10.15;5.50;;;;;;;26.09;62.75;94773.78;5069115;28;20705;-45
2023/09/21 10:42:29;;;;;;;10.63;5.97;;;;;;;26.16;61.94;94774.41;5029181;28;20196;-45
2023/09/21 10:45:09;;;;;;;9.77;4.88;;;;;;;26.12;60.49;94767.25;5028985;28;20253;-49
2023/09/21 10:47:42;;;;;;;8.13;4.82;;;;;;;25.99;60.81;94777.00;5028940;28;20227;-44
2023/09/21 10:50:12;;;;;;;11.88;5.38;;;;;;;25.83;62.16;94775.09;5028841;28;20195;-45
2023/09/21 10:52:41;;;;;;;7.65;5.05;;;;;;;25.88;62.36;94771.75;5028931;28;20211;-46
2023/09/21 10:55:09;;;;;;;6.80;5.28;;;;;;;25.90;61.67;94773.09;5028571;28;20192;-45
2023/09/21 10:57:36;;;;;;;8.18;5.13;;;;;;;25.93;61.59;94759.56;5028904;28;20227;-44
2023/09/21 11:00:07;;;;;;;8.75;5.55;;;;;;;25.98;61.46;94764.09;5028652;28;20631;-45
2023/09/21 11:02:36;;;;;;;9.38;5.13;;;;;;;25.99;61.39;94761.28;5028885;28;20227;-45
2023/09/21 11:05:03;;;;;;;10.02;5.07;;;;;;;25.92;61.62;94751.94;5028481;28;20664;-44
2023/09/21 11:07:33;;;;;;;9.85;5.85;;;;;;;25.85;61.45;94735.53;5044243;28;20217;-44
2023/09/21 11:10:01;;;;;;;11.55;5.75;;;;;;;25.99;61.41;94749.97;5088549;28;20208;-45
2023/09/21 11:12:27;;;;;;;11.75;5.80;;;;;;;26.06;61.11;94753.25;5088597;28;20667;-45
2023/09/21 11:14:54;;;;;;;14.80;6.75;;;;;;;26.23;60.73;94742.84;5088311;28;20560;-45
2023/09/21 11:17:21;;;;;;;15.30;6.10;;;;;;;26.40;60.89;94735.00;5110015;27;20211;-45
2023/09/21 11:19:48;;;;;;;8.73;5.80;;;;;;;26.47;59.44;94728.63;5152254;27;20196;-46
2023/09/21 11:22:15;;;;;;;9.32;5.30;;;;;;;26.45;59.67;94714.16;5152773;27;20195;-43